createdAt,value
2018-08-22T00:00:08.699Z,59.80
2018-08-22T00:02:37.441Z,60.60
2018-08-22T00:05:06.137Z,60.70
2018-08-22T00:07:35.018Z,61.30
2018-08-22T00:10:03.846Z,61.60
2018-08-22T00:12:32.499Z,60.00
2018-08-22T00:15:01.237Z,60.30
2018-08-22T00:17:29.952Z,61.30
2018-08-22T00:19:58.744Z,61.50
2018-08-22T00:22:27.697Z,61.50
2018-08-22T00:24:56.429Z,61.00
2018-08-22T00:27:25.331Z,60.50
2018-08-22T00:29:54.016Z,60.20
2018-08-22T00:32:22.762Z,60.30
2018-08-22T00:34:51.702Z,60.50
2018-08-22T00:37:20.530Z,60.70
2018-08-22T00:39:49.260Z,61.00
2018-08-22T00:42:23.575Z,60.50
2018-08-22T00:44:52.984Z,61.40
2018-08-22T00:47:22.001Z,60.60
2018-08-22T00:49:50.973Z,61.10
2018-08-22T00:52:19.865Z,61.10
2018-08-22T00:54:48.672Z,61.10
2018-08-22T00:57:17.532Z,62.20
2018-08-22T00:59:46.426Z,62.10
2018-08-22T01:02:15.901Z,62.10
2018-08-22T01:04:44.823Z,62.40
2018-08-22T01:07:13.730Z,62.50
2018-08-22T01:09:43.510Z,62.70
2018-08-22T01:12:12.199Z,62.70
2018-08-22T01:14:40.871Z,63.20
2018-08-22T01:17:09.700Z,63.90
2018-08-22T01:19:38.399Z,64.50
2018-08-22T01:22:07.782Z,65.10
2018-08-22T01:24:36.525Z,65.50
2018-08-22T01:27:05.249Z,65.90
2018-08-22T01:29:33.951Z,66.60
2018-08-22T01:32:02.798Z,66.30
2018-08-22T01:34:31.728Z,66.40
2018-08-22T01:37:00.392Z,66.50
2018-08-22T01:39:29.072Z,67.00
2018-08-22T01:41:57.783Z,67.40
2018-08-22T01:44:26.516Z,67.40
2018-08-22T01:46:55.246Z,67.70
2018-08-22T01:49:23.957Z,67.60
2018-08-22T01:51:52.684Z,67.80
2018-08-22T01:54:21.418Z,67.30
2018-08-22T01:56:50.054Z,68.30
2018-08-22T01:59:18.893Z,68.50
2018-08-22T02:01:47.560Z,68.60
2018-08-22T02:04:16.326Z,69.00
2018-08-22T02:06:45.065Z,69.10
2018-08-22T02:09:14.864Z,69.00
2018-08-22T02:11:43.530Z,69.10
2018-08-22T02:14:12.505Z,68.80
2018-08-22T02:16:41.265Z,68.60
2018-08-22T02:19:11.448Z,68.90
2018-08-22T02:21:40.076Z,69.20
2018-08-22T02:24:10.002Z,69.00
2018-08-22T02:26:38.716Z,69.20
2018-08-22T02:29:08.434Z,69.00
2018-08-22T02:31:37.803Z,68.90
2018-08-22T02:34:06.608Z,69.00
2018-08-22T02:36:35.848Z,69.80
2018-08-22T02:39:06.169Z,69.40
2018-08-22T02:41:34.947Z,69.60
2018-08-22T02:44:03.610Z,69.50
2018-08-22T02:46:33.348Z,69.60
2018-08-22T02:49:02.325Z,70.30
2018-08-22T02:51:31.021Z,70.70
2018-08-22T02:53:59.712Z,70.70
2018-08-22T02:56:28.510Z,70.90
2018-08-22T02:58:57.412Z,70.70
2018-08-22T03:01:26.213Z,71.20
2018-08-22T03:03:54.997Z,71.30
2018-08-22T03:06:23.793Z,70.90
2018-08-22T03:08:53.454Z,70.50
2018-08-22T03:11:22.216Z,70.30
2018-08-22T03:13:51.036Z,70.10
2018-08-22T03:16:19.946Z,70.20
2018-08-22T03:18:48.752Z,70.30
2018-08-22T03:21:17.618Z,70.40
2018-08-22T03:23:46.431Z,70.40
2018-08-22T03:26:15.300Z,70.40
2018-08-22T03:28:44.052Z,70.80
2018-08-22T03:31:15.217Z,70.50
2018-08-22T03:33:44.009Z,70.90
2018-08-22T03:36:12.867Z,71.00
2018-08-22T03:38:41.618Z,71.40
2018-08-22T03:41:10.966Z,71.40
2018-08-22T03:43:39.809Z,71.40
2018-08-22T03:46:08.609Z,71.30
2018-08-22T03:48:37.389Z,72.10
2018-08-22T03:51:06.142Z,71.70
2018-08-22T03:53:34.881Z,71.60
2018-08-22T03:56:04.329Z,72.00
2018-08-22T03:58:32.985Z,71.90
2018-08-22T04:01:01.758Z,72.20
2018-08-22T04:03:30.738Z,72.20
2018-08-22T04:05:59.565Z,72.20
2018-08-22T04:08:28.384Z,72.40
2018-08-22T04:10:57.255Z,72.40
2018-08-22T04:13:26.088Z,72.60
2018-08-22T04:15:54.947Z,72.00
2018-08-22T04:18:23.788Z,72.40
2018-08-22T04:20:52.556Z,72.50
2018-08-22T04:23:21.418Z,73.00
2018-08-22T04:25:50.213Z,72.80
2018-08-22T04:28:20.102Z,72.90
2018-08-22T04:30:49.932Z,72.90
2018-08-22T04:33:18.688Z,72.90
2018-08-22T04:35:47.697Z,72.90
2018-08-22T04:38:16.398Z,72.80
2018-08-22T04:40:46.349Z,72.80
2018-08-22T04:43:15.251Z,72.70
2018-08-22T04:45:44.565Z,73.10
2018-08-22T04:48:13.530Z,73.00
2018-08-22T04:50:59.690Z,73.10
2018-08-22T04:53:28.637Z,73.10
2018-08-22T04:55:57.461Z,73.70
2018-08-22T04:58:26.287Z,73.50
2018-08-22T05:00:55.046Z,73.70
2018-08-22T05:03:23.939Z,74.00
2018-08-22T05:05:52.749Z,73.70
2018-08-22T05:08:21.602Z,73.50
2018-08-22T05:10:50.412Z,74.10
2018-08-22T05:13:19.284Z,73.70
2018-08-22T05:15:48.511Z,73.00
2018-08-22T05:18:17.285Z,73.00
2018-08-22T05:20:46.244Z,72.60
2018-08-22T05:23:15.516Z,71.90
2018-08-22T05:25:45.156Z,71.50
2018-08-22T05:28:14.472Z,71.60
2018-08-22T05:30:43.538Z,71.60
2018-08-22T05:33:12.375Z,72.00
2018-08-22T05:35:41.243Z,71.30
2018-08-22T05:38:10.842Z,71.50
2018-08-22T05:40:40.493Z,70.80
2018-08-22T05:43:09.367Z,70.90
2018-08-22T05:45:39.218Z,71.60
2018-08-22T05:48:08.068Z,70.50
2018-08-22T05:50:36.952Z,70.40
2018-08-22T05:53:05.756Z,70.10
2018-08-22T05:55:34.628Z,70.00
2018-08-22T05:58:03.412Z,70.30
2018-08-22T06:00:32.516Z,70.50
2018-08-22T06:03:01.402Z,70.70
2018-08-22T06:05:30.103Z,70.10
2018-08-22T06:07:58.976Z,70.00
2018-08-22T06:10:27.801Z,70.30
2018-08-22T06:12:57.178Z,70.30
2018-08-22T06:15:25.940Z,69.30
2018-08-22T06:17:54.657Z,67.80
2018-08-22T06:20:23.530Z,67.80
2018-08-22T06:22:52.450Z,67.70
2018-08-22T06:25:22.247Z,67.70
2018-08-22T06:27:51.493Z,66.50
2018-08-22T06:30:22.482Z,66.30
2018-08-22T06:32:51.211Z,65.70
2018-08-22T06:35:19.971Z,64.80
2018-08-22T06:37:48.955Z,63.90
2018-08-22T06:40:17.920Z,61.70
2018-08-22T06:42:47.171Z,62.20
2018-08-22T06:45:17.049Z,60.50
2018-08-22T06:47:45.992Z,59.70
2018-08-22T06:50:15.001Z,58.80
2018-08-22T06:52:44.572Z,57.50
2018-08-22T06:55:13.412Z,55.80
2018-08-22T06:57:42.201Z,53.40
2018-08-22T07:00:11.033Z,51.00
2018-08-22T07:02:40.229Z,49.00
2018-08-22T07:05:09.317Z,47.40
2018-08-22T07:07:38.611Z,45.70
2018-08-22T07:10:07.605Z,44.20
2018-08-22T07:12:36.374Z,42.00
2018-08-22T07:15:05.714Z,40.90
2018-08-22T07:17:34.669Z,40.50
2018-08-22T07:20:03.985Z,40.40
2018-08-22T07:22:32.804Z,40.30
2018-08-22T07:25:01.620Z,40.20
2018-08-22T07:27:30.439Z,41.10
2018-08-22T07:29:59.148Z,42.20
2018-08-22T07:32:27.923Z,42.60
2018-08-22T07:34:56.702Z,43.40
2018-08-22T07:37:25.609Z,43.90
2018-08-22T07:39:54.497Z,45.10
2018-08-22T07:42:23.548Z,44.50
2018-08-22T07:44:52.355Z,45.30
2018-08-22T07:47:21.243Z,45.70
2018-08-22T07:49:50.018Z,46.00
2018-08-22T07:52:19.115Z,46.00
2018-08-22T07:54:48.149Z,45.80
2018-08-22T07:57:20.764Z,46.00
2018-08-22T07:59:50.204Z,44.90
2018-08-22T08:02:19.167Z,45.50
2018-08-22T08:04:48.102Z,44.70
2018-08-22T08:07:16.999Z,44.80
2018-08-22T08:09:45.826Z,44.60
2018-08-22T08:12:15.926Z,44.30
2018-08-22T08:14:49.930Z,44.10
2018-08-22T08:17:18.900Z,44.30
2018-08-22T08:19:48.218Z,44.70
2018-08-22T08:22:17.153Z,44.40
2018-08-22T08:24:46.233Z,44.10
2018-08-22T08:27:16.007Z,44.10
2018-08-22T08:29:44.953Z,44.70
2018-08-22T08:32:13.775Z,44.80
2018-08-22T08:34:42.691Z,44.40
2018-08-22T08:37:12.661Z,44.40
2018-08-22T08:39:41.676Z,44.90
2018-08-22T08:42:10.562Z,43.50
2018-08-22T08:44:39.416Z,43.80
2018-08-22T08:47:09.660Z,45.30
2018-08-22T08:49:38.544Z,43.80
2018-08-22T08:52:07.395Z,43.70
2018-08-22T08:54:36.188Z,43.30
2018-08-22T08:57:05.340Z,42.90
2018-08-22T08:59:34.157Z,42.80
2018-08-22T09:02:03.049Z,43.70
2018-08-22T09:04:31.960Z,44.10
2018-08-22T09:07:01.604Z,42.40
2018-08-22T09:09:30.580Z,42.70
2018-08-22T09:12:00.444Z,42.00
2018-08-22T09:14:29.660Z,41.70
2018-08-22T09:16:59.282Z,42.30
2018-08-22T09:19:28.515Z,43.60
2018-08-22T09:21:57.382Z,44.30
2018-08-22T09:24:26.328Z,44.70
2018-08-22T09:26:55.133Z,42.80
2018-08-22T09:29:24.871Z,43.10
2018-08-22T09:31:53.769Z,43.20
2018-08-22T09:34:22.673Z,42.00
2018-08-22T09:36:51.403Z,42.00
2018-08-22T09:39:20.245Z,42.10
2018-08-22T09:41:49.077Z,39.50
2018-08-22T09:44:17.893Z,38.30
2018-08-22T09:46:46.931Z,36.90
2018-08-22T09:49:15.977Z,36.40
2018-08-22T09:51:44.886Z,36.50
2018-08-22T09:54:13.802Z,36.60
2018-08-22T09:56:45.723Z,36.70
2018-08-22T09:59:14.693Z,36.60
2018-08-22T10:01:44.532Z,36.60
2018-08-22T10:04:13.333Z,36.80
2018-08-22T10:06:47.176Z,36.40
2018-08-22T10:09:19.585Z,36.30
2018-08-22T10:11:48.401Z,34.90
2018-08-22T10:14:17.252Z,35.10
2018-08-22T10:16:46.159Z,34.30
2018-08-22T10:19:14.889Z,33.90
2018-08-22T10:21:43.718Z,34.10
2018-08-22T10:24:12.627Z,34.50
2018-08-22T10:26:41.590Z,34.00
2018-08-22T10:29:10.393Z,32.60
2018-08-22T10:31:39.195Z,32.00
2018-08-22T10:34:08.067Z,31.30
2018-08-22T10:36:36.876Z,31.10
2018-08-22T10:39:07.900Z,30.80
2018-08-22T10:41:36.707Z,30.20
2018-08-22T10:44:05.667Z,31.50
2018-08-22T10:46:34.608Z,31.10
2018-08-22T10:49:03.758Z,31.50
2018-08-22T10:51:32.612Z,32.20
2018-08-22T10:54:01.451Z,32.10
2018-08-22T10:56:30.465Z,32.90
2018-08-22T10:58:59.284Z,34.10
2018-08-22T11:01:28.069Z,33.80
2018-08-22T11:03:57.054Z,33.50
2018-08-22T11:06:26.048Z,32.70
2018-08-22T11:08:55.631Z,32.60
2018-08-22T11:11:24.628Z,32.30
2018-08-22T11:13:53.609Z,32.90
2018-08-22T11:16:22.497Z,32.30
2018-08-22T11:18:51.404Z,32.30
2018-08-22T11:21:31.121Z,32.60
2018-08-22T11:24:11.089Z,33.70
2018-08-22T11:26:50.927Z,34.20
2018-08-22T11:29:30.704Z,34.60
2018-08-22T11:32:10.435Z,36.00
2018-08-22T11:34:45.353Z,36.30
2018-08-22T11:37:15.350Z,37.20
2018-08-22T11:39:45.579Z,37.80
2018-08-22T11:42:14.490Z,38.00
2018-08-22T11:44:43.482Z,38.20
2018-08-22T11:47:12.322Z,38.70
2018-08-22T11:49:41.125Z,38.70
2018-08-22T11:52:10.995Z,39.00
2018-08-22T11:54:40.038Z,39.50
2018-08-22T11:57:08.918Z,39.60
2018-08-22T11:59:37.681Z,39.80
2018-08-22T12:02:06.533Z,40.00
2018-08-22T12:04:35.475Z,39.70
2018-08-22T12:07:04.277Z,39.80
2018-08-22T12:09:33.035Z,40.20
2018-08-22T12:12:01.906Z,40.50
2018-08-22T12:14:30.706Z,41.40
2018-08-22T12:16:59.553Z,41.00
2018-08-22T12:19:28.340Z,40.60
2018-08-22T12:21:57.175Z,40.60
2018-08-22T12:24:26.193Z,40.60
2018-08-22T12:26:56.048Z,40.80
2018-08-22T12:29:24.898Z,41.00
2018-08-22T12:31:54.273Z,41.70
2018-08-22T12:34:23.218Z,40.90
2018-08-22T12:36:51.998Z,40.70
2018-08-22T12:39:20.987Z,42.00
2018-08-22T12:41:49.860Z,40.90
2018-08-22T12:44:18.744Z,40.70
2018-08-22T12:46:51.396Z,40.30
2018-08-22T12:49:20.467Z,40.50
2018-08-22T12:51:49.363Z,40.80
2018-08-22T12:54:18.361Z,41.20
2018-08-22T12:56:47.268Z,41.10
2018-08-22T12:59:16.173Z,41.10
2018-08-22T13:01:45.017Z,40.70
2018-08-22T13:04:13.898Z,40.70
2018-08-22T13:06:42.803Z,40.70
2018-08-22T13:09:15.647Z,40.50
2018-08-22T13:11:51.073Z,40.50
2018-08-22T13:14:20.114Z,40.50
2018-08-22T13:16:49.060Z,40.50
2018-08-22T13:19:17.855Z,40.50
2018-08-22T13:21:46.754Z,41.20
2018-08-22T13:24:15.590Z,40.80
2018-08-22T13:26:44.981Z,40.20
2018-08-22T13:29:13.875Z,41.70
2018-08-22T13:31:42.764Z,41.60
2018-08-22T13:34:11.769Z,40.50
2018-08-22T13:36:40.898Z,40.40
2018-08-22T13:39:10.851Z,40.90
2018-08-22T13:41:39.601Z,40.80
2018-08-22T13:44:08.634Z,41.00
2018-08-22T13:46:37.550Z,40.80
2018-08-22T13:49:06.524Z,40.90
2018-08-22T13:51:35.361Z,41.30
2018-08-22T13:54:04.361Z,41.00
2018-08-22T13:56:33.290Z,40.30
2018-08-22T13:59:02.140Z,41.00
2018-08-22T14:01:31.139Z,40.40
2018-08-22T14:03:59.780Z,40.40
2018-08-22T14:06:28.789Z,40.60
2018-08-22T14:08:57.770Z,40.40
2018-08-22T14:11:26.712Z,39.90
2018-08-22T14:13:55.689Z,39.70
2018-08-22T14:16:24.544Z,40.20
2018-08-22T14:18:53.369Z,39.70
2018-08-22T14:21:22.369Z,38.40
2018-08-22T14:23:51.326Z,38.70
2018-08-22T14:26:20.568Z,39.30
2018-08-22T14:28:49.489Z,38.80
2018-08-22T14:31:18.396Z,38.70
2018-08-22T14:33:47.449Z,39.40
2018-08-22T14:36:16.428Z,39.40
2018-08-22T14:38:45.292Z,39.70
2018-08-22T14:41:14.148Z,39.00
2018-08-22T14:43:42.985Z,38.70
2018-08-22T14:46:11.953Z,38.80
2018-08-22T14:48:40.872Z,38.90
2018-08-22T14:51:09.737Z,38.40
2018-08-22T14:53:38.572Z,37.70
2018-08-22T14:56:07.524Z,38.40
2018-08-22T14:58:36.385Z,38.80
2018-08-22T15:01:08.009Z,38.40
2018-08-22T15:03:37.081Z,37.70
2018-08-22T15:06:05.627Z,38.10
2018-08-22T15:08:34.440Z,37.60
2018-08-22T15:11:03.347Z,38.50
2018-08-22T15:13:32.236Z,38.10
2018-08-22T15:16:01.198Z,38.50
2018-08-22T15:18:30.125Z,38.30
2018-08-22T15:20:58.963Z,37.60
2018-08-22T15:23:27.875Z,37.60
2018-08-22T15:25:56.877Z,36.70
2018-08-22T15:28:25.897Z,37.00
2018-08-22T15:30:56.381Z,37.40
2018-08-22T15:33:25.269Z,37.10
2018-08-22T15:35:54.468Z,37.00
2018-08-22T15:38:23.319Z,36.40
2018-08-22T15:40:52.176Z,37.40
2018-08-22T15:43:21.359Z,37.30
2018-08-22T15:45:50.221Z,37.60
2018-08-22T15:48:19.283Z,36.60
2018-08-22T15:50:48.442Z,36.30
2018-08-22T15:53:17.472Z,36.70
2018-08-22T15:55:46.407Z,36.50
2018-08-22T15:58:15.394Z,36.60
2018-08-22T16:00:50.130Z,37.00
2018-08-22T16:03:19.627Z,36.70
2018-08-22T16:05:49.414Z,36.60
2018-08-22T16:08:19.816Z,37.00
2018-08-22T16:10:53.097Z,38.00
2018-08-22T16:13:28.470Z,37.10
2018-08-22T16:16:00.171Z,37.70
2018-08-22T16:18:29.069Z,37.20
2018-08-22T16:21:00.113Z,37.50
2018-08-22T16:23:34.733Z,37.80
2018-08-22T16:26:04.926Z,37.20
2018-08-22T16:28:46.128Z,37.00
2018-08-22T16:31:14.966Z,37.30
2018-08-22T16:33:43.826Z,37.90
2018-08-22T16:36:17.457Z,37.40
2018-08-22T16:38:46.391Z,37.40
2018-08-22T16:41:16.605Z,37.60
2018-08-22T16:43:48.692Z,37.80
2018-08-22T16:46:17.797Z,37.60
2018-08-22T16:48:50.190Z,37.80
2018-08-22T16:51:19.639Z,38.20
2018-08-22T16:53:57.930Z,37.80
2018-08-22T16:56:27.920Z,37.90
2018-08-22T16:59:01.883Z,37.50
2018-08-22T17:01:31.184Z,37.30
2018-08-22T17:04:00.003Z,37.40
2018-08-22T17:06:29.494Z,37.10
2018-08-22T17:08:58.866Z,37.30
2018-08-22T17:11:27.788Z,37.60
2018-08-22T17:13:56.827Z,37.30
2018-08-22T17:16:26.104Z,37.30
2018-08-22T17:18:55.071Z,36.60
2018-08-22T17:21:23.856Z,36.70
2018-08-22T17:23:52.633Z,36.80
2018-08-22T17:26:22.487Z,36.40
2018-08-22T17:28:53.153Z,36.50
2018-08-22T17:31:23.121Z,36.40
2018-08-22T17:33:55.581Z,36.30
2018-08-22T17:36:24.580Z,36.50
2018-08-22T17:38:55.009Z,36.90
2018-08-22T17:41:25.226Z,36.10
2018-08-22T17:43:59.812Z,36.60
2018-08-22T17:46:31.069Z,36.60
2018-08-22T17:48:59.983Z,36.30
2018-08-22T17:51:29.080Z,36.50
2018-08-22T17:53:58.031Z,36.90
2018-08-22T17:56:29.009Z,36.50
2018-08-22T17:58:57.942Z,36.10
2018-08-22T18:01:29.370Z,36.10
2018-08-22T18:03:59.246Z,36.90
2018-08-22T18:06:28.378Z,36.90
2018-08-22T18:08:57.356Z,36.50
2018-08-22T18:11:26.454Z,37.40
2018-08-22T18:13:57.786Z,36.80
2018-08-22T18:16:26.650Z,38.00
2018-08-22T18:19:01.310Z,38.00
2018-08-22T18:21:46.400Z,37.90
2018-08-22T18:24:15.384Z,37.60
2018-08-22T18:26:46.593Z,37.80
2018-08-22T18:29:15.721Z,38.00
2018-08-22T18:31:44.565Z,38.10
2018-08-22T18:34:13.412Z,39.10
2018-08-22T18:36:42.384Z,38.40
2018-08-22T18:39:14.096Z,38.40
2018-08-22T18:41:43.073Z,39.40
2018-08-22T18:44:11.973Z,40.00
2018-08-22T18:46:40.817Z,40.10
2018-08-22T18:49:09.622Z,39.90
2018-08-22T18:51:38.598Z,39.90
2018-08-22T18:54:07.605Z,40.30
2018-08-22T18:56:36.425Z,40.80
2018-08-22T18:59:16.165Z,41.00
2018-08-22T19:01:45.018Z,41.00
2018-08-22T19:04:13.944Z,41.30
2018-08-22T19:06:43.021Z,41.70
2018-08-22T19:09:11.913Z,40.80
2018-08-22T19:11:40.884Z,41.10
2018-08-22T19:14:09.775Z,41.80
2018-08-22T19:16:38.581Z,41.80
2018-08-22T19:19:07.517Z,42.60
2018-08-22T19:21:36.253Z,43.80
2018-08-22T19:24:06.375Z,43.80
2018-08-22T19:26:35.353Z,43.30
2018-08-22T19:29:05.975Z,43.10
2018-08-22T19:31:36.016Z,43.40
2018-08-22T19:34:04.913Z,44.00
2018-08-22T19:36:33.881Z,45.40
2018-08-22T19:39:02.988Z,45.60
2018-08-22T19:41:32.910Z,46.20
2018-08-22T19:44:01.883Z,45.40
2018-08-22T19:46:30.624Z,45.10
2018-08-22T19:49:00.876Z,45.30
2018-08-22T19:51:29.981Z,45.50
2018-08-22T19:54:05.107Z,45.30
2018-08-22T19:56:41.487Z,46.00
2018-08-22T19:59:10.497Z,47.20
2018-08-22T20:01:39.407Z,47.00
2018-08-22T20:04:08.367Z,47.70
2018-08-22T20:06:37.287Z,47.40
2018-08-22T20:09:06.840Z,47.20
2018-08-22T20:11:35.646Z,47.60
2018-08-22T20:14:06.297Z,47.70
2018-08-22T20:16:35.070Z,48.80
2018-08-22T20:19:05.601Z,49.50
2018-08-22T20:21:36.348Z,48.70
2018-08-22T20:24:06.731Z,49.70
2018-08-22T20:26:36.036Z,49.70
2018-08-22T20:29:05.411Z,49.90
2018-08-22T20:31:35.708Z,50.50
2018-08-22T20:34:08.062Z,51.20
2018-08-22T20:36:37.064Z,51.20
2018-08-22T20:39:10.106Z,50.90
2018-08-22T20:41:40.663Z,50.90
2018-08-22T20:44:11.839Z,51.20
2018-08-22T20:46:41.962Z,51.50
2018-08-22T20:49:10.973Z,51.20
2018-08-22T20:51:39.876Z,50.50
2018-08-22T20:54:10.872Z,51.60
2018-08-22T20:56:46.217Z,51.40
2018-08-22T20:59:15.680Z,51.20
2018-08-22T21:01:47.839Z,50.50
2018-08-22T21:04:16.672Z,51.40
2018-08-22T21:06:45.710Z,51.40
2018-08-22T21:09:14.723Z,51.30
2018-08-22T21:11:44.140Z,51.00
2018-08-22T21:14:13.213Z,50.90
2018-08-22T21:16:42.602Z,51.00
2018-08-22T21:19:12.053Z,50.50
2018-08-22T21:21:40.929Z,51.80
2018-08-22T21:24:09.888Z,51.40
2018-08-22T21:26:51.118Z,51.40
2018-08-22T21:29:20.403Z,51.00
2018-08-22T21:31:49.845Z,52.70
2018-08-22T21:34:20.813Z,51.70
2018-08-22T21:36:50.334Z,51.50
2018-08-22T21:39:27.262Z,51.40
2018-08-22T21:41:56.418Z,51.40
2018-08-22T21:44:25.544Z,51.60
2018-08-22T21:47:00.289Z,52.00
2018-08-22T21:49:29.637Z,52.10
2018-08-22T21:52:00.000Z,51.80
2018-08-22T21:54:28.902Z,52.10
2018-08-22T21:56:57.761Z,52.60
2018-08-22T21:59:26.645Z,53.30
2018-08-22T22:02:00.685Z,53.40
2018-08-22T22:04:32.773Z,54.10
2018-08-22T22:07:01.844Z,54.10
2018-08-22T22:09:30.717Z,53.90
2018-08-22T22:12:00.489Z,54.90
2018-08-22T22:14:32.430Z,54.80
2018-08-22T22:17:02.214Z,54.90
2018-08-22T22:19:32.384Z,55.20
2018-08-22T22:22:01.826Z,55.50
2018-08-22T22:24:30.589Z,55.80
2018-08-22T22:27:00.426Z,56.00
2018-08-22T22:29:32.452Z,55.70
2018-08-22T22:32:01.371Z,56.00
2018-08-22T22:34:30.387Z,56.20
2018-08-22T22:36:59.285Z,56.50
2018-08-22T22:39:37.596Z,56.70
2018-08-22T22:42:42.591Z,56.90
2018-08-22T22:45:12.245Z,57.20
2018-08-22T22:47:41.229Z,57.70
2018-08-22T22:50:10.138Z,57.40
2018-08-22T22:52:40.291Z,58.00
2018-08-22T22:55:10.097Z,58.30
2018-08-22T22:57:40.182Z,58.30
2018-08-22T23:00:10.258Z,58.60
2018-08-22T23:02:39.184Z,58.70
2018-08-22T23:05:08.442Z,58.90
2018-08-22T23:07:39.255Z,58.90
2018-08-22T23:10:15.131Z,59.20
2018-08-22T23:12:45.044Z,59.60
2018-08-22T23:15:15.824Z,60.00
2018-08-22T23:17:45.917Z,59.70
2018-08-22T23:20:34.921Z,59.80
2018-08-22T23:23:05.658Z,60.10
2018-08-22T23:25:34.444Z,61.00
2018-08-22T23:28:03.213Z,60.60
2018-08-22T23:30:36.958Z,61.00
2018-08-22T23:33:06.558Z,61.70
2018-08-22T23:35:36.335Z,61.60
2018-08-22T23:38:07.477Z,62.00
2018-08-22T23:40:36.754Z,62.10
2018-08-22T23:43:05.586Z,62.30
2018-08-22T23:45:37.195Z,62.20
2018-08-22T23:48:06.606Z,62.60
2018-08-22T23:50:47.348Z,62.30
2018-08-22T23:53:16.188Z,62.70
2018-08-22T23:55:44.997Z,62.30
2018-08-22T23:58:13.981Z,62.30
